createdAt,value
2018-09-27T00:00:20.167Z,8.68
2018-09-27T00:02:48.509Z,4.65
2018-09-27T00:05:17.092Z,10.55
2018-09-27T00:07:45.522Z,7.33
2018-09-27T00:10:13.848Z,8.00
2018-09-27T00:12:42.177Z,7.85
2018-09-27T00:15:10.576Z,5.70
2018-09-27T00:17:38.940Z,7.40
2018-09-27T00:20:07.429Z,6.70
2018-09-27T00:22:35.869Z,6.65
2018-09-27T00:25:04.361Z,5.47
2018-09-27T00:27:32.650Z,9.85
2018-09-27T00:30:00.989Z,10.15
2018-09-27T00:32:29.337Z,7.95
2018-09-27T00:34:57.721Z,8.78
2018-09-27T00:37:26.109Z,9.45
2018-09-27T00:39:54.565Z,11.25
2018-09-27T00:42:22.908Z,9.98
2018-09-27T00:44:51.268Z,11.93
2018-09-27T00:47:19.621Z,9.23
2018-09-27T00:49:47.995Z,9.88
2018-09-27T00:52:16.606Z,15.18
2018-09-27T00:54:45.060Z,6.12
2018-09-27T00:57:13.592Z,8.30
2018-09-27T00:59:42.208Z,9.20
2018-09-27T01:02:10.653Z,9.83
2018-09-27T01:04:39.093Z,9.53
2018-09-27T01:07:07.508Z,12.35
2018-09-27T01:09:35.888Z,11.45
2018-09-27T01:12:04.305Z,14.50
2018-09-27T01:14:32.732Z,11.78
2018-09-27T01:17:01.166Z,10.35
2018-09-27T01:19:29.553Z,12.95
2018-09-27T01:21:58.045Z,10.75
2018-09-27T01:24:26.399Z,15.43
2018-09-27T01:26:54.811Z,7.53
2018-09-27T01:29:23.191Z,19.20
2018-09-27T01:31:51.618Z,12.28
2018-09-27T01:34:20.073Z,11.25
2018-09-27T01:36:48.622Z,9.75
2018-09-27T01:39:17.145Z,10.10
2018-09-27T01:41:45.691Z,10.58
2018-09-27T01:44:13.974Z,11.97
2018-09-27T01:46:42.290Z,7.80
2018-09-27T01:49:10.628Z,7.92
2018-09-27T01:51:39.011Z,10.00
2018-09-27T01:54:07.397Z,15.00
2018-09-27T01:56:35.774Z,14.98
2018-09-27T01:59:04.188Z,11.95
2018-09-27T02:01:32.544Z,11.35
2018-09-27T02:04:00.908Z,9.28
2018-09-27T02:06:29.266Z,10.05
2018-09-27T02:08:57.716Z,11.95
2018-09-27T02:11:26.123Z,13.68
2018-09-27T02:13:54.661Z,6.85
2018-09-27T02:16:23.157Z,14.45
2018-09-27T02:18:51.535Z,10.03
2018-09-27T02:21:19.845Z,12.35
2018-09-27T02:23:48.102Z,10.60
2018-09-27T02:26:16.394Z,10.63
2018-09-27T02:28:45.706Z,12.58
2018-09-27T02:31:14.198Z,9.30
2018-09-27T02:33:42.560Z,9.13
2018-09-27T02:36:10.861Z,10.58
2018-09-27T02:38:39.237Z,9.30
2018-09-27T02:41:07.633Z,13.43
2018-09-27T02:43:36.014Z,9.15
2018-09-27T02:46:04.420Z,14.93
2018-09-27T02:48:32.848Z,9.83
2018-09-27T02:51:01.230Z,10.55
2018-09-27T02:53:29.695Z,19.35
2018-09-27T02:55:58.284Z,9.53
2018-09-27T02:58:27.008Z,13.65
2018-09-27T03:00:55.450Z,9.33
2018-09-27T03:03:24.407Z,12.85
2018-09-27T03:05:53.829Z,12.63
2018-09-27T03:08:22.185Z,12.10
2018-09-27T03:10:50.619Z,13.50
2018-09-27T03:13:18.991Z,15.83
2018-09-27T03:15:48.145Z,9.40
2018-09-27T03:18:16.536Z,10.15
2018-09-27T03:20:44.950Z,14.85
2018-09-27T03:23:13.315Z,12.55
2018-09-27T03:25:41.739Z,12.98
2018-09-27T03:28:10.474Z,10.50
2018-09-27T03:30:38.851Z,13.45
2018-09-27T03:33:07.371Z,16.67
2018-09-27T03:35:36.615Z,12.43
2018-09-27T03:38:05.033Z,9.20
2018-09-27T03:40:33.507Z,8.38
2018-09-27T03:43:01.856Z,10.98
2018-09-27T03:45:30.305Z,10.20
2018-09-27T03:47:58.744Z,12.10
2018-09-27T03:50:27.123Z,12.35
2018-09-27T03:52:55.518Z,10.38
2018-09-27T03:55:23.817Z,12.70
2018-09-27T03:57:52.181Z,11.03
2018-09-27T04:00:20.636Z,11.10
2018-09-27T04:02:49.055Z,23.75
2018-09-27T04:05:17.423Z,9.43
2018-09-27T04:07:45.835Z,8.90
2018-09-27T04:10:14.270Z,9.08
2018-09-27T04:12:42.979Z,14.28
2018-09-27T04:15:11.736Z,17.40
2018-09-27T04:17:40.180Z,14.78
2018-09-27T04:20:08.654Z,13.38
2018-09-27T04:22:38.010Z,10.98
2018-09-27T04:25:06.417Z,14.85
2018-09-27T04:27:34.766Z,14.30
2018-09-27T04:30:03.085Z,11.90
2018-09-27T04:32:31.359Z,11.38
2018-09-27T04:34:59.674Z,12.70
2018-09-27T04:37:28.094Z,11.90
2018-09-27T04:39:56.485Z,12.45
2018-09-27T04:42:25.085Z,9.03
2018-09-27T04:44:53.620Z,11.08
2018-09-27T04:47:22.292Z,13.95
2018-09-27T04:49:50.823Z,11.95
2018-09-27T04:52:19.352Z,12.55
2018-09-27T04:54:47.914Z,13.55
2018-09-27T04:57:16.645Z,11.40
2018-09-27T04:59:47.074Z,13.20
2018-09-27T05:02:15.449Z,9.28
2018-09-27T05:04:43.778Z,7.90
2018-09-27T05:07:12.110Z,9.08
2018-09-27T05:09:41.328Z,19.82
2018-09-27T05:12:09.641Z,16.57
2018-09-27T05:14:37.941Z,19.80
2018-09-27T05:17:06.341Z,11.73
2018-09-27T05:19:34.710Z,12.50
2018-09-27T05:22:03.096Z,10.00
2018-09-27T05:24:31.456Z,10.85
2018-09-27T05:26:59.886Z,16.32
2018-09-27T05:29:28.507Z,9.75
2018-09-27T05:31:57.083Z,14.93
2018-09-27T05:34:25.590Z,13.43
2018-09-27T05:36:54.199Z,12.85
2018-09-27T05:39:22.860Z,17.62
2018-09-27T05:41:51.232Z,18.15
2018-09-27T05:44:19.595Z,17.67
2018-09-27T05:46:47.919Z,13.10
2018-09-27T05:49:17.247Z,10.60
2018-09-27T05:51:45.625Z,11.28
2018-09-27T05:54:14.013Z,12.93
2018-09-27T05:56:42.348Z,14.43
2018-09-27T05:59:10.712Z,12.23
2018-09-27T06:01:39.049Z,10.25
2018-09-27T06:04:07.400Z,17.35
2018-09-27T06:06:36.111Z,13.62
2018-09-27T06:09:11.168Z,12.45
2018-09-27T06:11:39.601Z,16.50
2018-09-27T06:14:08.140Z,11.88
2018-09-27T06:16:37.641Z,15.58
2018-09-27T06:19:06.255Z,15.88
2018-09-27T06:21:34.721Z,11.73
2018-09-27T06:24:03.092Z,19.37
2018-09-27T06:26:31.440Z,7.92
2018-09-27T06:28:59.725Z,18.42
2018-09-27T06:31:28.061Z,15.88
2018-09-27T06:33:56.343Z,11.93
2018-09-27T06:36:24.739Z,16.82
2018-09-27T06:38:53.208Z,17.00
2018-09-27T06:41:21.780Z,16.07
2018-09-27T06:43:50.232Z,15.40
2018-09-27T06:46:18.582Z,17.52
2018-09-27T06:48:46.958Z,14.03
2018-09-27T06:51:15.396Z,11.97
2018-09-27T06:53:43.764Z,18.20
2018-09-27T06:56:12.281Z,33.08
2018-09-27T06:58:41.278Z,16.67
2018-09-27T07:01:09.944Z,12.10
2018-09-27T07:03:38.438Z,10.72
2018-09-27T07:06:07.058Z,14.47
2018-09-27T07:08:35.468Z,17.75
2018-09-27T07:11:03.790Z,19.12
2018-09-27T07:13:32.177Z,19.55
2018-09-27T07:16:00.549Z,17.05
2018-09-27T07:18:29.564Z,17.17
2018-09-27T07:20:57.879Z,14.90
2018-09-27T07:23:26.460Z,15.15
2018-09-27T07:25:54.795Z,17.60
2018-09-27T07:28:23.185Z,14.70
2018-09-27T07:30:51.532Z,12.37
2018-09-27T07:33:19.979Z,18.65
2018-09-27T07:35:48.372Z,15.35
2018-09-27T07:38:16.870Z,13.32
2018-09-27T07:40:45.273Z,16.93
2018-09-27T07:43:13.632Z,10.72
2018-09-27T07:45:41.985Z,13.05
2018-09-27T07:48:10.344Z,19.70
2018-09-27T07:50:38.756Z,13.22
2018-09-27T07:53:07.282Z,22.77
2018-09-27T07:55:35.615Z,14.23
2018-09-27T07:58:03.986Z,17.82
2018-09-27T08:00:32.352Z,12.68
2018-09-27T08:03:00.678Z,13.95
2018-09-27T08:05:29.078Z,14.15
2018-09-27T08:07:57.435Z,15.95
2018-09-27T08:10:25.751Z,11.70
2018-09-27T08:12:54.339Z,13.90
2018-09-27T08:15:22.806Z,13.38
2018-09-27T08:17:51.237Z,17.57
2018-09-27T08:20:19.754Z,42.20
2018-09-27T08:22:48.040Z,18.87
2018-09-27T08:25:16.444Z,13.25
2018-09-27T08:27:45.821Z,15.18
2018-09-27T08:30:14.190Z,17.55
2018-09-27T08:32:42.545Z,17.23
2018-09-27T08:35:10.852Z,14.05
2018-09-27T08:37:39.160Z,17.25
2018-09-27T08:40:07.711Z,14.45
2018-09-27T08:42:36.109Z,15.43
2018-09-27T08:45:04.531Z,15.28
2018-09-27T08:47:32.901Z,20.25
2018-09-27T08:50:01.237Z,17.12
2018-09-27T08:52:29.537Z,14.83
2018-09-27T08:54:57.909Z,25.70
2018-09-27T08:57:27.631Z,14.38
2018-09-27T08:59:56.821Z,16.25
2018-09-27T09:02:25.249Z,17.60
2018-09-27T09:04:53.634Z,21.42
2018-09-27T09:07:21.970Z,17.65
2018-09-27T09:09:50.300Z,17.62
2018-09-27T09:12:18.628Z,17.52
2018-09-27T09:14:46.991Z,18.00
2018-09-27T09:17:15.315Z,16.40
2018-09-27T09:19:43.737Z,23.65
2018-09-27T09:22:12.035Z,18.60
2018-09-27T09:24:40.579Z,20.57
2018-09-27T09:27:08.866Z,18.05
2018-09-27T09:29:37.303Z,24.40
2018-09-27T09:32:05.652Z,25.25
2018-09-27T09:34:34.093Z,20.17
2018-09-27T09:37:02.413Z,19.20
2018-09-27T09:39:30.748Z,17.10
2018-09-27T09:41:59.116Z,19.87
2018-09-27T09:44:27.451Z,18.27
2018-09-27T09:46:55.867Z,17.70
2018-09-27T09:49:24.314Z,15.80
2018-09-27T09:51:52.736Z,19.12
2018-09-27T09:54:21.843Z,21.45
2018-09-27T09:56:50.294Z,20.17
2018-09-27T09:59:18.704Z,18.57
2018-09-27T10:01:47.061Z,21.17
2018-09-27T10:04:15.820Z,17.75
2018-09-27T10:06:44.224Z,17.42
2018-09-27T10:09:12.808Z,22.30
2018-09-27T10:11:41.256Z,20.70
2018-09-27T10:14:09.837Z,19.32
2018-09-27T10:16:39.238Z,18.27
2018-09-27T10:19:07.640Z,17.77
2018-09-27T10:21:36.127Z,21.93
2018-09-27T10:24:04.518Z,22.73
2018-09-27T10:26:32.873Z,20.35
2018-09-27T10:29:01.240Z,28.07
2018-09-27T10:31:29.626Z,19.30
2018-09-27T10:33:58.074Z,22.67
2018-09-27T10:36:26.446Z,25.75
2018-09-27T10:38:54.884Z,24.98
2018-09-27T10:41:23.364Z,18.87
2018-09-27T10:43:51.694Z,24.07
2018-09-27T10:46:20.171Z,20.37
2018-09-27T10:48:48.653Z,18.60
2018-09-27T10:51:17.217Z,16.93
2018-09-27T10:53:45.733Z,16.23
2018-09-27T10:56:14.147Z,17.87
2018-09-27T10:58:42.629Z,22.32
2018-09-27T11:01:10.991Z,19.30
2018-09-27T11:03:39.359Z,24.77
2018-09-27T11:06:08.042Z,20.40
2018-09-27T11:08:36.455Z,17.90
2018-09-27T11:11:04.937Z,17.05
2018-09-27T11:13:33.382Z,13.15
2018-09-27T11:16:01.802Z,17.65
2018-09-27T11:18:30.208Z,19.55
2018-09-27T11:20:58.860Z,18.98
2018-09-27T11:23:27.478Z,18.17
2018-09-27T11:25:56.017Z,19.75
2018-09-27T11:28:24.571Z,18.65
2018-09-27T11:30:58.307Z,16.85
2018-09-27T11:33:26.759Z,18.37
2018-09-27T11:35:55.172Z,14.28
2018-09-27T11:38:23.559Z,18.65
2018-09-27T11:40:51.900Z,18.20
2018-09-27T11:43:20.425Z,20.10
2018-09-27T11:45:48.792Z,16.10
2018-09-27T11:48:17.170Z,18.92
2018-09-27T11:50:45.571Z,19.62
2018-09-27T11:53:13.971Z,18.98
2018-09-27T11:55:43.192Z,13.50
2018-09-27T11:58:11.552Z,15.65
2018-09-27T12:00:39.996Z,17.37
2018-09-27T12:03:08.333Z,15.15
2018-09-27T12:05:36.726Z,16.37
2018-09-27T12:08:05.169Z,11.78
2018-09-27T12:10:33.630Z,15.03
2018-09-27T12:13:03.272Z,13.55
2018-09-27T12:15:31.679Z,9.23
2018-09-27T12:18:00.062Z,9.68
2018-09-27T12:20:28.527Z,11.95
2018-09-27T12:22:56.973Z,12.75
2018-09-27T12:25:25.361Z,10.93
2018-09-27T12:27:53.757Z,10.80
2018-09-27T12:30:22.100Z,10.88
2018-09-27T12:32:50.567Z,17.07
2018-09-27T12:35:18.919Z,9.18
2018-09-27T12:37:47.278Z,11.48
2018-09-27T12:40:15.687Z,8.95
2018-09-27T12:42:44.280Z,10.82
2018-09-27T12:45:12.620Z,9.03
2018-09-27T12:47:40.905Z,8.38
2018-09-27T12:50:09.286Z,9.08
2018-09-27T12:52:37.778Z,6.30
2018-09-27T12:55:06.222Z,8.60
2018-09-27T12:57:35.229Z,8.18
2018-09-27T13:00:03.823Z,6.40
2018-09-27T13:02:33.461Z,9.03
2018-09-27T13:05:01.806Z,7.53
2018-09-27T13:07:30.132Z,13.32
2018-09-27T13:09:58.644Z,9.83
2018-09-27T13:12:26.867Z,7.42
2018-09-27T13:14:55.191Z,10.18
2018-09-27T13:17:23.546Z,11.85
2018-09-27T13:19:52.131Z,12.68
2018-09-27T13:22:20.466Z,7.50
2018-09-27T13:24:48.787Z,8.30
2018-09-27T13:27:17.765Z,7.78
2018-09-27T13:29:46.697Z,10.53
2018-09-27T13:32:15.099Z,9.98
2018-09-27T13:34:43.598Z,9.60
2018-09-27T13:37:12.031Z,7.75
2018-09-27T13:39:40.437Z,12.18
2018-09-27T13:42:08.760Z,8.18
2018-09-27T13:44:37.072Z,14.75
2018-09-27T13:47:05.489Z,11.12
2018-09-27T13:49:33.804Z,10.93
2018-09-27T13:52:02.145Z,11.68
2018-09-27T13:54:30.462Z,9.83
2018-09-27T13:56:58.896Z,10.38
2018-09-27T13:59:27.244Z,9.88
2018-09-27T14:01:55.562Z,10.93
2018-09-27T14:04:23.903Z,7.72
2018-09-27T14:06:52.284Z,8.83
2018-09-27T14:09:20.688Z,8.48
2018-09-27T14:11:49.116Z,8.63
2018-09-27T14:14:20.119Z,10.60
2018-09-27T14:16:51.814Z,7.83
2018-09-27T14:19:22.353Z,7.80
2018-09-27T14:21:50.717Z,13.80
2018-09-27T14:24:19.253Z,9.35
2018-09-27T14:26:47.644Z,8.00
2018-09-27T14:29:15.992Z,5.97
2018-09-27T14:31:44.501Z,8.55
2018-09-27T14:34:12.873Z,7.60
2018-09-27T14:36:41.244Z,6.97
2018-09-27T14:39:10.355Z,18.25
2018-09-27T14:41:38.950Z,6.85
2018-09-27T14:44:07.523Z,8.03
2018-09-27T14:46:35.990Z,7.28
2018-09-27T14:49:04.624Z,9.80
2018-09-27T14:51:33.026Z,7.58
2018-09-27T14:54:01.360Z,7.20
2018-09-27T14:56:29.714Z,6.25
2018-09-27T14:58:58.195Z,7.55
2018-09-27T15:01:26.695Z,7.10
2018-09-27T15:03:55.075Z,13.80
2018-09-27T15:06:23.419Z,5.65
2018-09-27T15:08:51.754Z,6.75
2018-09-27T15:11:20.207Z,8.43
2018-09-27T15:13:48.636Z,8.08
2018-09-27T15:16:16.954Z,11.90
2018-09-27T15:18:45.277Z,9.55
2018-09-27T15:21:13.555Z,5.97
2018-09-27T15:23:41.994Z,11.12
2018-09-27T15:26:10.426Z,7.10
2018-09-27T15:28:38.800Z,8.90
2018-09-27T15:31:07.322Z,8.93
2018-09-27T15:33:35.749Z,12.85
2018-09-27T15:36:04.528Z,17.85
2018-09-27T15:38:33.572Z,5.90
2018-09-27T15:41:02.194Z,7.45
2018-09-27T15:43:30.764Z,10.95
2018-09-27T15:45:59.119Z,7.72
2018-09-27T15:48:27.398Z,7.45
2018-09-27T15:50:56.086Z,10.23
2018-09-27T15:53:24.476Z,4.83
2018-09-27T15:55:53.043Z,6.17
2018-09-27T15:58:21.499Z,6.35
2018-09-27T16:00:49.899Z,5.45
2018-09-27T16:03:18.259Z,4.30
2018-09-27T16:05:46.546Z,3.90
2018-09-27T16:08:14.872Z,4.85
2018-09-27T16:10:43.364Z,6.12
2018-09-27T16:13:11.723Z,5.17
2018-09-27T16:15:40.170Z,8.65
2018-09-27T16:18:08.700Z,5.22
2018-09-27T16:20:37.729Z,8.10
2018-09-27T16:23:06.201Z,8.83
2018-09-27T16:25:34.542Z,10.32
2018-09-27T16:28:03.035Z,4.55
2018-09-27T16:30:31.947Z,13.05
2018-09-27T16:33:00.259Z,7.15
2018-09-27T16:35:28.645Z,7.55
2018-09-27T16:37:57.314Z,7.55
2018-09-27T16:40:25.741Z,9.50
2018-09-27T16:42:54.109Z,7.37
2018-09-27T16:45:22.523Z,13.45
2018-09-27T16:47:50.996Z,9.63
2018-09-27T16:50:19.433Z,17.20
2018-09-27T16:52:47.963Z,11.50
2018-09-27T16:55:16.347Z,12.53
2018-09-27T16:57:45.697Z,16.12
2018-09-27T17:00:14.123Z,11.85
2018-09-27T17:02:42.637Z,13.58
2018-09-27T17:05:11.017Z,13.83
2018-09-27T17:07:39.412Z,12.30
2018-09-27T17:10:07.842Z,20.85
2018-09-27T17:12:36.258Z,18.62
2018-09-27T17:15:04.756Z,11.88
2018-09-27T17:17:33.121Z,16.73
2018-09-27T17:20:01.555Z,17.17
2018-09-27T17:22:30.031Z,20.08
2018-09-27T17:24:58.519Z,15.50
2018-09-27T17:27:26.846Z,20.55
2018-09-27T17:29:55.203Z,14.85
2018-09-27T17:32:23.598Z,19.32
2018-09-27T17:34:52.093Z,18.23
2018-09-27T17:37:20.525Z,18.37
2018-09-27T17:39:48.920Z,22.00
2018-09-27T17:42:17.369Z,23.57
2018-09-27T17:44:45.734Z,13.88
2018-09-27T17:47:14.260Z,20.43
2018-09-27T17:49:42.680Z,12.65
2018-09-27T17:52:11.024Z,16.40
2018-09-27T17:54:39.547Z,17.70
2018-09-27T17:57:08.160Z,15.75
2018-09-27T17:59:36.605Z,17.62
2018-09-27T18:02:04.972Z,16.12
2018-09-27T18:04:33.737Z,24.10
2018-09-27T18:07:02.105Z,25.95
2018-09-27T18:09:30.431Z,20.25
2018-09-27T18:11:58.945Z,20.43
2018-09-27T18:14:27.389Z,16.23
2018-09-27T18:16:55.740Z,29.95
2018-09-27T18:19:25.313Z,25.45
2018-09-27T18:21:54.872Z,39.45
2018-09-27T18:24:23.300Z,25.40
2018-09-27T18:26:51.643Z,17.65
2018-09-27T18:29:19.998Z,25.10
2018-09-27T18:31:48.331Z,21.30
2018-09-27T18:34:16.756Z,20.52
2018-09-27T18:36:45.108Z,24.27
2018-09-27T18:39:13.748Z,15.50
2018-09-27T18:41:42.633Z,17.50
2018-09-27T18:44:11.137Z,19.65
2018-09-27T18:46:39.529Z,14.75
2018-09-27T18:49:08.823Z,20.30
2018-09-27T18:51:37.435Z,22.70
2018-09-27T18:54:06.077Z,31.85
2018-09-27T18:56:34.566Z,24.92
2018-09-27T18:59:03.918Z,17.70
2018-09-27T19:01:32.455Z,17.55
2018-09-27T19:04:00.811Z,16.02
2018-09-27T19:06:29.169Z,16.87
2018-09-27T19:08:57.471Z,20.25
2018-09-27T19:11:25.845Z,16.67
2018-09-27T19:13:54.574Z,19.62
2018-09-27T19:16:22.925Z,14.35
2018-09-27T19:18:51.278Z,17.75
2018-09-27T19:21:19.657Z,16.10
2018-09-27T19:23:48.111Z,15.13
2018-09-27T19:26:16.592Z,19.25
2018-09-27T19:28:44.963Z,12.82
2018-09-27T19:31:13.454Z,15.98
2018-09-27T19:33:41.958Z,17.67
2018-09-27T19:36:10.467Z,24.43
2018-09-27T19:38:38.898Z,19.05
2018-09-27T19:41:07.288Z,14.38
2018-09-27T19:43:35.661Z,25.55
2018-09-27T19:46:04.008Z,16.25
2018-09-27T19:48:32.453Z,18.57
2018-09-27T19:51:00.797Z,20.02
2018-09-27T19:53:29.159Z,18.52
2018-09-27T19:55:57.650Z,17.20
2018-09-27T19:58:26.119Z,20.43
2018-09-27T20:01:02.690Z,14.95
2018-09-27T20:03:31.101Z,18.30
2018-09-27T20:05:59.451Z,21.57
2018-09-27T20:08:27.860Z,20.23
2018-09-27T20:10:56.200Z,28.15
2018-09-27T20:13:24.578Z,20.20
2018-09-27T20:15:52.906Z,23.12
2018-09-27T20:18:21.335Z,21.45
2018-09-27T20:20:49.779Z,18.98
2018-09-27T20:23:18.158Z,18.48
2018-09-27T20:25:46.580Z,19.07
2018-09-27T20:28:15.701Z,18.20
2018-09-27T20:30:43.989Z,18.05
2018-09-27T20:33:12.372Z,19.48
2018-09-27T20:35:40.736Z,20.72
2018-09-27T20:38:10.238Z,20.00
2018-09-27T20:40:38.668Z,18.65
2018-09-27T20:43:07.008Z,18.75
2018-09-27T20:45:35.420Z,18.87
2018-09-27T20:48:03.764Z,17.70
2018-09-27T20:50:32.095Z,19.57
2018-09-27T20:53:00.473Z,26.42
2018-09-27T20:55:28.871Z,18.25
2018-09-27T20:57:57.411Z,17.92
2018-09-27T21:00:25.794Z,19.87
2018-09-27T21:02:54.180Z,19.05
2018-09-27T21:05:22.792Z,28.32
2018-09-27T21:07:52.475Z,16.50
2018-09-27T21:10:20.846Z,20.08
2018-09-27T21:12:49.399Z,18.55
2018-09-27T21:15:18.146Z,20.00
2018-09-27T21:17:46.468Z,14.68
2018-09-27T21:20:14.774Z,15.75
2018-09-27T21:22:43.140Z,16.37
2018-09-27T21:25:11.498Z,20.17
2018-09-27T21:27:39.936Z,16.17
2018-09-27T21:30:08.428Z,21.00
2018-09-27T21:32:37.051Z,20.57
2018-09-27T21:35:05.746Z,15.88
2018-09-27T21:37:34.688Z,21.20
2018-09-27T21:40:03.272Z,16.60
2018-09-27T21:42:32.001Z,26.57
2018-09-27T21:45:00.356Z,22.90
2018-09-27T21:47:28.716Z,25.27
2018-09-27T21:49:57.233Z,20.82
2018-09-27T21:52:25.645Z,24.77
2018-09-27T21:54:53.978Z,25.55
2018-09-27T21:57:22.340Z,24.95
2018-09-27T21:59:50.736Z,26.05
2018-09-27T22:02:19.117Z,24.30
2018-09-27T22:04:47.474Z,21.45
2018-09-27T22:07:15.817Z,22.62
2018-09-27T22:09:44.131Z,22.85
2018-09-27T22:12:12.537Z,21.48
2018-09-27T22:14:41.359Z,23.18
2018-09-27T22:17:09.781Z,21.00
2018-09-27T22:19:38.506Z,31.25
2018-09-27T22:22:06.968Z,22.98
2018-09-27T22:24:35.425Z,20.00
2018-09-27T22:27:03.900Z,20.57
2018-09-27T22:29:32.278Z,22.73
2018-09-27T22:32:00.630Z,22.40
2018-09-27T22:34:29.072Z,23.77
2018-09-27T22:36:58.430Z,24.70
2018-09-27T22:39:26.918Z,17.65
2018-09-27T22:41:55.259Z,24.50
2018-09-27T22:44:23.664Z,26.20
2018-09-27T22:46:52.065Z,22.45
2018-09-27T22:49:21.193Z,25.82
2018-09-27T22:51:49.862Z,26.37
2018-09-27T22:54:18.472Z,25.68
2018-09-27T22:56:47.059Z,23.42
2018-09-27T22:59:15.497Z,26.42
2018-09-27T23:01:43.984Z,22.95
2018-09-27T23:04:12.293Z,23.18
2018-09-27T23:06:40.670Z,21.45
2018-09-27T23:09:09.054Z,28.65
2018-09-27T23:11:37.405Z,24.25
2018-09-27T23:14:05.731Z,22.20
2018-09-27T23:16:34.080Z,22.25
2018-09-27T23:19:02.764Z,22.05
2018-09-27T23:21:31.067Z,20.85
2018-09-27T23:23:59.592Z,26.97
2018-09-27T23:26:28.285Z,22.02
2018-09-27T23:28:56.717Z,25.17
2018-09-27T23:31:25.142Z,21.87
2018-09-27T23:34:00.232Z,20.43
2018-09-27T23:36:29.174Z,21.17
2018-09-27T23:38:57.592Z,23.18
2018-09-27T23:41:26.117Z,19.05
2018-09-27T23:43:54.536Z,24.50
2018-09-27T23:46:22.884Z,20.37
2018-09-27T23:48:51.394Z,24.92
2018-09-27T23:51:21.551Z,23.47
2018-09-27T23:53:49.886Z,21.02
2018-09-27T23:56:18.310Z,24.57
2018-09-27T23:58:47.175Z,22.30
